createdAt,value
2018-02-10T00:00:35.736Z,1007.31
2018-02-10T00:01:35.694Z,1007.31
2018-02-10T00:02:35.659Z,1007.30
2018-02-10T00:03:35.630Z,1007.28
2018-02-10T00:04:35.604Z,1007.27
2018-02-10T00:05:35.571Z,1007.28
2018-02-10T00:06:35.531Z,1007.28
2018-02-10T00:07:35.495Z,1007.31
2018-02-10T00:08:35.460Z,1007.28
2018-02-10T00:09:35.428Z,1007.26
2018-02-10T00:10:35.396Z,1007.28
2018-02-10T00:11:35.366Z,1007.32
2018-02-10T00:12:35.330Z,1007.30
2018-02-10T00:13:35.296Z,1007.28
2018-02-10T00:14:35.266Z,1007.31
2018-02-10T00:15:35.234Z,1007.26
2018-02-10T00:16:35.200Z,1007.29
2018-02-10T00:17:35.167Z,1007.30
2018-02-10T00:18:35.137Z,1007.23
2018-02-10T00:19:35.097Z,1007.28
2018-02-10T00:20:35.066Z,1007.29
2018-02-10T00:21:35.035Z,1007.30
2018-02-10T00:22:35.003Z,1007.28
2018-02-10T00:23:34.969Z,1007.30
2018-02-10T00:24:34.933Z,1007.28
2018-02-10T00:25:34.899Z,1007.32
2018-02-10T00:26:34.864Z,1007.29
2018-02-10T00:27:34.834Z,1007.25
2018-02-10T00:28:34.803Z,1007.26
2018-02-10T00:29:34.771Z,1007.28
2018-02-10T00:30:34.740Z,1007.27
2018-02-10T00:31:34.701Z,1007.27
2018-02-10T00:32:34.669Z,1007.26
2018-02-10T00:33:34.636Z,1007.25
2018-02-10T00:34:34.604Z,1007.26
2018-02-10T00:35:34.565Z,1007.19
2018-02-10T00:36:34.536Z,1007.19
2018-02-10T00:37:34.501Z,1007.19
2018-02-10T00:38:34.468Z,1007.23
2018-02-10T00:39:34.438Z,1007.19
2018-02-10T00:40:34.404Z,1007.17
2018-02-10T00:41:34.373Z,1007.19
2018-02-10T00:42:34.340Z,1007.23
2018-02-10T00:43:34.298Z,1007.22
2018-02-10T00:44:34.265Z,1007.24
2018-02-10T00:45:34.232Z,1007.23
2018-02-10T00:46:34.200Z,1007.24
2018-02-10T00:47:34.169Z,1007.24
2018-02-10T00:48:34.129Z,1007.23
2018-02-10T00:49:34.100Z,1007.23
2018-02-10T00:50:34.070Z,1007.24
2018-02-10T00:51:34.032Z,1007.22
2018-02-10T00:52:33.997Z,1007.22
2018-02-10T00:53:33.966Z,1007.25
2018-02-10T00:54:33.937Z,1007.27
2018-02-10T00:55:33.902Z,1007.34
2018-02-10T00:56:33.864Z,1007.31
2018-02-10T00:57:33.830Z,1007.30
2018-02-10T00:58:33.799Z,1007.33
2018-02-10T00:59:33.763Z,1007.33
2018-02-10T01:00:33.733Z,1007.38
2018-02-10T01:01:33.696Z,1007.36
2018-02-10T01:02:33.660Z,1007.36
2018-02-10T01:03:33.630Z,1007.37
2018-02-10T01:04:33.599Z,1007.40
2018-02-10T01:05:33.561Z,1007.39
2018-02-10T01:06:33.527Z,1007.40
2018-02-10T01:07:33.492Z,1007.35
2018-02-10T01:08:33.462Z,1007.38
2018-02-10T01:09:33.428Z,1007.36
2018-02-10T01:10:33.398Z,1007.36
2018-02-10T01:11:33.356Z,1007.37
2018-02-10T01:12:33.337Z,1007.38
2018-02-10T01:13:33.297Z,1007.37
2018-02-10T01:14:33.262Z,1007.34
2018-02-10T01:15:33.226Z,1007.39
2018-02-10T01:16:33.192Z,1007.35
2018-02-10T01:17:33.159Z,1007.40
2018-02-10T01:18:33.123Z,1007.35
2018-02-10T01:19:33.089Z,1007.41
2018-02-10T01:20:33.055Z,1007.36
2018-02-10T01:21:33.018Z,1007.40
2018-02-10T01:22:32.990Z,1007.41
2018-02-10T01:23:32.959Z,1007.40
2018-02-10T01:24:32.922Z,1007.45
2018-02-10T01:25:32.913Z,1007.40
2018-02-10T01:26:32.857Z,1007.37
2018-02-10T01:27:32.837Z,1007.38
2018-02-10T01:28:32.782Z,1007.37
2018-02-10T01:29:32.805Z,1007.36
2018-02-10T01:30:32.776Z,1007.36
2018-02-10T01:31:32.686Z,1007.41
2018-02-10T01:32:32.656Z,1007.37
2018-02-10T01:33:32.618Z,1007.37
2018-02-10T01:34:32.584Z,1007.37
2018-02-10T01:35:32.550Z,1007.43
2018-02-10T01:36:32.522Z,1007.40
2018-02-10T01:37:32.485Z,1007.41
2018-02-10T01:38:32.456Z,1007.41
2018-02-10T01:39:32.422Z,1007.46
2018-02-10T01:40:32.382Z,1007.41
2018-02-10T01:41:32.350Z,1007.40
2018-02-10T01:42:32.318Z,1007.44
2018-02-10T01:43:32.284Z,1007.43
2018-02-10T01:44:32.250Z,1007.47
2018-02-10T01:45:32.214Z,1007.44
2018-02-10T01:46:32.183Z,1007.43
2018-02-10T01:47:32.145Z,1007.41
2018-02-10T01:48:32.116Z,1007.43
2018-02-10T01:49:32.076Z,1007.44
2018-02-10T01:50:32.052Z,1007.42
2018-02-10T01:51:32.011Z,1007.48
2018-02-10T01:52:31.981Z,1007.47
2018-02-10T01:53:31.951Z,1007.47
2018-02-10T01:54:31.913Z,1007.48
2018-02-10T01:55:31.885Z,1007.42
2018-02-10T01:56:31.848Z,1007.45
2018-02-10T01:57:31.812Z,1007.47
2018-02-10T01:58:31.777Z,1007.45
2018-02-10T01:59:31.751Z,1007.50
2018-02-10T02:00:31.712Z,1007.51
2018-02-10T02:01:31.680Z,1007.48
2018-02-10T02:02:31.652Z,1007.48
2018-02-10T02:03:31.609Z,1007.52
2018-02-10T02:04:31.581Z,1007.49
2018-02-10T02:05:31.547Z,1007.49
2018-02-10T02:06:31.512Z,1007.48
2018-02-10T02:07:31.475Z,1007.47
2018-02-10T02:08:31.444Z,1007.45
2018-02-10T02:09:31.412Z,1007.44
2018-02-10T02:10:31.382Z,1007.42
2018-02-10T02:11:31.348Z,1007.42
2018-02-10T02:12:31.314Z,1007.44
2018-02-10T02:13:31.295Z,1007.43
2018-02-10T02:14:31.243Z,1007.43
2018-02-10T02:15:31.216Z,1007.41
2018-02-10T02:16:31.177Z,1007.36
2018-02-10T02:17:31.153Z,1007.41
2018-02-10T02:18:31.112Z,1007.43
2018-02-10T02:19:31.081Z,1007.42
2018-02-10T02:20:31.043Z,1007.37
2018-02-10T02:21:31.017Z,1007.40
2018-02-10T02:22:30.980Z,1007.40
2018-02-10T02:23:30.950Z,1007.36
2018-02-10T02:24:30.914Z,1007.37
2018-02-10T02:25:30.875Z,1007.37
2018-02-10T02:26:30.844Z,1007.40
2018-02-10T02:27:30.815Z,1007.39
2018-02-10T02:28:30.784Z,1007.41
2018-02-10T02:29:30.744Z,1007.39
2018-02-10T02:30:30.709Z,1007.37
2018-02-10T02:31:30.680Z,1007.38
2018-02-10T02:32:30.648Z,1007.45
2018-02-10T02:33:30.609Z,1007.47
2018-02-10T02:34:30.578Z,1007.45
2018-02-10T02:35:30.547Z,1007.43
2018-02-10T02:36:30.510Z,1007.44
2018-02-10T02:37:30.476Z,1007.41
2018-02-10T02:38:30.444Z,1007.43
2018-02-10T02:39:30.418Z,1007.44
2018-02-10T02:40:30.372Z,1007.38
2018-02-10T02:41:30.338Z,1007.39
2018-02-10T02:42:30.317Z,1007.35
2018-02-10T02:43:30.273Z,1007.36
2018-02-10T02:44:30.239Z,1007.33
2018-02-10T02:45:30.232Z,1007.39
2018-02-10T02:46:30.168Z,1007.32
2018-02-10T02:47:30.138Z,1007.34
2018-02-10T02:48:30.103Z,1007.33
2018-02-10T02:49:30.071Z,1007.32
2018-02-10T02:50:30.035Z,1007.34
2018-02-10T02:51:30.015Z,1007.35
2018-02-10T02:52:29.966Z,1007.31
2018-02-10T02:53:29.933Z,1007.29
2018-02-10T02:54:29.896Z,1007.34
2018-02-10T02:55:29.870Z,1007.32
2018-02-10T02:56:29.839Z,1007.32
2018-02-10T02:57:29.799Z,1007.36
2018-02-10T02:58:29.762Z,1007.38
2018-02-10T02:59:29.732Z,1007.38
2018-02-10T03:00:29.695Z,1007.34
2018-02-10T03:01:29.666Z,1007.34
2018-02-10T03:02:29.634Z,1007.37
2018-02-10T03:03:29.599Z,1007.36
2018-02-10T03:04:29.568Z,1007.34
2018-02-10T03:05:29.530Z,1007.30
2018-02-10T03:06:29.499Z,1007.31
2018-02-10T03:07:29.464Z,1007.31
2018-02-10T03:08:29.434Z,1007.34
2018-02-10T03:09:29.399Z,1007.30
2018-02-10T03:10:29.403Z,1007.33
2018-02-10T03:11:29.329Z,1007.33
2018-02-10T03:12:29.298Z,1007.35
2018-02-10T03:13:29.265Z,1007.32
2018-02-10T03:14:29.230Z,1007.31
2018-02-10T03:15:29.193Z,1007.35
2018-02-10T03:16:29.161Z,1007.34
2018-02-10T03:17:29.128Z,1007.38
2018-02-10T03:18:29.094Z,1007.34
2018-02-10T03:19:29.060Z,1007.37
2018-02-10T03:20:29.031Z,1007.35
2018-02-10T03:21:28.992Z,1007.37
2018-02-10T03:22:28.970Z,1007.41
2018-02-10T03:23:28.934Z,1007.43
2018-02-10T03:24:28.895Z,1007.44
2018-02-10T03:25:28.859Z,1007.40
2018-02-10T03:26:28.826Z,1007.39
2018-02-10T03:27:28.796Z,1007.42
2018-02-10T03:28:28.758Z,1007.42
2018-02-10T03:29:28.727Z,1007.40
2018-02-10T03:30:28.692Z,1007.43
2018-02-10T03:31:28.656Z,1007.39
2018-02-10T03:32:28.627Z,1007.43
2018-02-10T03:33:28.591Z,1007.45
2018-02-10T03:34:28.556Z,1007.46
2018-02-10T03:35:28.527Z,1007.45
2018-02-10T03:36:28.496Z,1007.46
2018-02-10T03:37:28.456Z,1007.45
2018-02-10T03:38:28.418Z,1007.45
2018-02-10T03:39:28.388Z,1007.45
2018-02-10T03:40:28.395Z,1007.47
2018-02-10T03:41:28.322Z,1007.43
2018-02-10T03:42:28.295Z,1007.46
2018-02-10T03:43:28.282Z,1007.44
2018-02-10T03:44:28.227Z,1007.41
2018-02-10T03:45:28.190Z,1007.42
2018-02-10T03:46:28.164Z,1007.40
2018-02-10T03:47:28.126Z,1007.42
2018-02-10T03:48:28.085Z,1007.42
2018-02-10T03:49:28.055Z,1007.40
2018-02-10T03:50:28.034Z,1007.41
2018-02-10T03:51:27.991Z,1007.44
2018-02-10T03:52:27.957Z,1007.43
2018-02-10T03:53:27.926Z,1007.44
2018-02-10T03:54:27.895Z,1007.45
2018-02-10T03:55:27.869Z,1007.43
2018-02-10T03:56:27.873Z,1007.46
2018-02-10T03:57:27.836Z,1007.50
2018-02-10T03:58:27.758Z,1007.48
2018-02-10T03:59:27.724Z,1007.55
2018-02-10T04:00:27.692Z,1007.57
2018-02-10T04:01:27.658Z,1007.62
2018-02-10T04:02:27.624Z,1007.62
2018-02-10T04:03:27.589Z,1007.63
2018-02-10T04:04:27.556Z,1007.72
2018-02-10T04:05:27.523Z,1007.67
2018-02-10T04:06:27.493Z,1007.70
2018-02-10T04:07:27.452Z,1007.69
2018-02-10T04:08:27.430Z,1007.72
2018-02-10T04:09:27.389Z,1007.70
2018-02-10T04:10:27.360Z,1007.73
2018-02-10T04:11:27.334Z,1007.71
2018-02-10T04:12:27.290Z,1007.74
2018-02-10T04:13:27.256Z,1007.71
2018-02-10T04:14:27.246Z,1007.72
2018-02-10T04:15:27.193Z,1007.76
2018-02-10T04:16:27.165Z,1007.71
2018-02-10T04:17:27.122Z,1007.78
2018-02-10T04:18:27.096Z,1007.79
2018-02-10T04:19:27.068Z,1007.74
2018-02-10T04:20:27.025Z,1007.75
2018-02-10T04:21:26.998Z,1007.75
2018-02-10T04:22:26.959Z,1007.79
2018-02-10T04:23:26.924Z,1007.77
2018-02-10T04:24:26.893Z,1007.77
2018-02-10T04:25:26.860Z,1007.75
2018-02-10T04:26:26.823Z,1007.79
2018-02-10T04:27:26.793Z,1007.77
2018-02-10T04:28:26.760Z,1007.78
2018-02-10T04:29:26.734Z,1007.84
2018-02-10T04:30:26.693Z,1007.80
2018-02-10T04:31:26.660Z,1007.80
2018-02-10T04:32:26.626Z,1007.87
2018-02-10T04:33:26.594Z,1007.83
2018-02-10T04:34:26.560Z,1007.85
2018-02-10T04:35:26.528Z,1007.80
2018-02-10T04:36:26.495Z,1007.81
2018-02-10T04:37:26.504Z,1007.79
2018-02-10T04:38:26.424Z,1007.78
2018-02-10T04:39:26.413Z,1007.75
2018-02-10T04:40:26.361Z,1007.81
2018-02-10T04:41:26.428Z,1007.78
2018-02-10T04:42:26.328Z,1007.80
2018-02-10T04:43:26.259Z,1007.82
2018-02-10T04:44:26.223Z,1007.82
2018-02-10T04:45:26.195Z,1007.81
2018-02-10T04:46:26.172Z,1007.80
2018-02-10T04:47:26.728Z,1007.81
2018-02-10T04:48:26.094Z,1007.82
2018-02-10T04:49:26.059Z,1007.83
2018-02-10T04:50:26.169Z,1007.84
2018-02-10T04:51:25.995Z,1007.85
2018-02-10T04:52:25.959Z,1007.86
2018-02-10T04:53:25.929Z,1007.85
2018-02-10T04:54:25.889Z,1007.86
2018-02-10T04:55:25.861Z,1007.87
2018-02-10T04:56:25.866Z,1007.85
2018-02-10T04:57:25.794Z,1007.86
2018-02-10T04:58:25.765Z,1007.82
2018-02-10T04:59:25.729Z,1007.82
2018-02-10T05:00:25.696Z,1007.83
2018-02-10T05:01:25.659Z,1007.83
2018-02-10T05:02:25.631Z,1007.89
2018-02-10T05:03:25.595Z,1007.86
2018-02-10T05:04:25.563Z,1007.88
2018-02-10T05:05:25.529Z,1007.88
2018-02-10T05:06:25.498Z,1007.88
2018-02-10T05:07:25.464Z,1007.92
2018-02-10T05:08:25.431Z,1007.92
2018-02-10T05:09:25.397Z,1007.92
2018-02-10T05:10:25.368Z,1007.96
2018-02-10T05:11:25.336Z,1007.91
2018-02-10T05:12:25.298Z,1007.94
2018-02-10T05:13:25.274Z,1007.91
2018-02-10T05:14:25.233Z,1007.91
2018-02-10T05:15:25.196Z,1007.92
2018-02-10T05:16:25.165Z,1007.90
2018-02-10T05:17:25.134Z,1007.92
2018-02-10T05:18:25.100Z,1007.93
2018-02-10T05:19:25.062Z,1007.96
2018-02-10T05:20:25.037Z,1007.97
2018-02-10T05:21:25.000Z,1008.01
2018-02-10T05:22:24.968Z,1008.00
2018-02-10T05:23:24.935Z,1007.98
2018-02-10T05:24:24.905Z,1007.98
2018-02-10T05:25:24.866Z,1007.99
2018-02-10T05:26:24.835Z,1007.98
2018-02-10T05:27:24.799Z,1007.93
2018-02-10T05:28:24.769Z,1007.96
2018-02-10T05:29:24.739Z,1007.91
2018-02-10T05:30:24.702Z,1007.94
2018-02-10T05:31:24.670Z,1007.93
2018-02-10T05:32:24.630Z,1007.91
2018-02-10T05:33:24.599Z,1007.91
2018-02-10T05:34:24.568Z,1007.92
2018-02-10T05:35:24.534Z,1007.89
2018-02-10T05:36:24.502Z,1007.92
2018-02-10T05:37:24.470Z,1007.90
2018-02-10T05:38:24.436Z,1007.94
2018-02-10T05:39:24.407Z,1007.89
2018-02-10T05:40:24.368Z,1007.91
2018-02-10T05:41:24.332Z,1007.89
2018-02-10T05:42:24.298Z,1007.88
2018-02-10T05:43:24.270Z,1007.88
2018-02-10T05:44:24.280Z,1007.88
2018-02-10T05:45:24.203Z,1007.84
2018-02-10T05:46:24.170Z,1007.87
2018-02-10T05:47:24.134Z,1007.85
2018-02-10T05:48:24.099Z,1007.86
2018-02-10T05:49:24.079Z,1007.83
2018-02-10T05:50:24.037Z,1007.82
2018-02-10T05:51:24.001Z,1007.87
2018-02-10T05:52:23.963Z,1007.83
2018-02-10T05:53:23.931Z,1007.85
2018-02-10T05:54:23.901Z,1007.85
2018-02-10T05:55:23.859Z,1007.85
2018-02-10T05:56:23.830Z,1007.90
2018-02-10T05:57:23.798Z,1007.85
2018-02-10T05:58:23.769Z,1007.88
2018-02-10T05:59:23.732Z,1007.88
2018-02-10T06:00:23.693Z,1007.88
2018-02-10T06:01:23.660Z,1007.90
2018-02-10T06:02:23.636Z,1007.88
2018-02-10T06:03:23.597Z,1007.88
2018-02-10T06:04:23.574Z,1007.93
2018-02-10T06:05:23.529Z,1007.90
2018-02-10T06:06:23.505Z,1007.90
2018-02-10T06:07:23.467Z,1007.93
2018-02-10T06:08:23.433Z,1007.97
2018-02-10T06:09:23.398Z,1007.93
2018-02-10T06:10:23.363Z,1007.95
2018-02-10T06:11:23.332Z,1007.94
2018-02-10T06:12:23.303Z,1007.96
2018-02-10T06:13:23.264Z,1007.99
2018-02-10T06:14:23.244Z,1007.96
2018-02-10T06:15:23.203Z,1008.01
2018-02-10T06:16:23.165Z,1008.00
2018-02-10T06:17:23.134Z,1007.96
2018-02-10T06:18:23.101Z,1007.99
2018-02-10T06:19:23.066Z,1007.99
2018-02-10T06:20:23.037Z,1007.99
2018-02-10T06:21:23.002Z,1008.00
2018-02-10T06:22:22.970Z,1008.00
2018-02-10T06:23:22.937Z,1008.02
2018-02-10T06:24:22.904Z,1008.04
2018-02-10T06:25:22.870Z,1008.00
2018-02-10T06:26:22.832Z,1007.95
2018-02-10T06:27:22.802Z,1008.02
2018-02-10T06:28:22.770Z,1007.94
2018-02-10T06:29:22.732Z,1007.96
2018-02-10T06:30:22.704Z,1007.98
2018-02-10T06:31:22.666Z,1007.95
2018-02-10T06:32:22.640Z,1007.92
2018-02-10T06:33:22.602Z,1007.92
2018-02-10T06:34:22.570Z,1007.97
2018-02-10T06:35:22.539Z,1007.95
2018-02-10T06:36:22.505Z,1007.90
2018-02-10T06:37:22.470Z,1007.91
2018-02-10T06:38:22.439Z,1007.90
2018-02-10T06:39:22.404Z,1007.93
2018-02-10T06:40:22.377Z,1007.93
2018-02-10T06:41:22.338Z,1007.93
2018-02-10T06:42:22.307Z,1007.93
2018-02-10T06:43:22.276Z,1007.92
2018-02-10T06:44:22.238Z,1007.90
2018-02-10T06:45:22.202Z,1007.92
2018-02-10T06:46:22.173Z,1007.92
2018-02-10T06:47:22.138Z,1007.93
2018-02-10T06:48:22.108Z,1007.95
2018-02-10T06:49:22.071Z,1007.97
2018-02-10T06:50:22.051Z,1007.94
2018-02-10T06:51:22.008Z,1007.92
2018-02-10T06:52:22.038Z,1007.95
2018-02-10T06:53:21.941Z,1007.90
2018-02-10T06:54:21.911Z,1007.98
2018-02-10T06:55:21.875Z,1007.97
2018-02-10T06:56:21.840Z,1007.98
2018-02-10T06:57:21.804Z,1007.95
2018-02-10T06:58:21.774Z,1008.01
2018-02-10T06:59:21.737Z,1008.00
2018-02-10T07:00:21.707Z,1008.00
2018-02-10T07:01:21.688Z,1007.99
2018-02-10T07:02:21.638Z,1008.04
2018-02-10T07:03:21.604Z,1008.06
2018-02-10T07:04:21.574Z,1008.09
2018-02-10T07:05:21.548Z,1008.08
2018-02-10T07:06:21.507Z,1008.06
2018-02-10T07:07:21.470Z,1008.09
2018-02-10T07:08:21.447Z,1008.08
2018-02-10T07:09:21.408Z,1008.09
2018-02-10T07:10:21.376Z,1008.06
2018-02-10T07:11:21.346Z,1008.07
2018-02-10T07:12:21.306Z,1008.05
2018-02-10T07:13:21.272Z,1008.10
2018-02-10T07:14:21.238Z,1008.11
2018-02-10T07:15:21.207Z,1008.14
2018-02-10T07:16:21.176Z,1008.14
2018-02-10T07:17:21.141Z,1008.14
2018-02-10T07:18:21.107Z,1008.17
2018-02-10T07:19:21.081Z,1008.14
2018-02-10T07:20:21.038Z,1008.14
2018-02-10T07:21:21.012Z,1008.16
2018-02-10T07:22:20.980Z,1008.10
2018-02-10T07:23:20.953Z,1008.18
2018-02-10T07:24:20.923Z,1008.20
2018-02-10T07:25:20.879Z,1008.22
2018-02-10T07:26:20.840Z,1008.16
2018-02-10T07:27:20.812Z,1008.18
2018-02-10T07:28:20.774Z,1008.19
2018-02-10T07:29:20.744Z,1008.20
2018-02-10T07:30:20.706Z,1008.18
2018-02-10T07:31:20.695Z,1008.22
2018-02-10T07:32:20.642Z,1008.18
2018-02-10T07:33:20.616Z,1008.19
2018-02-10T07:34:20.573Z,1008.27
2018-02-10T07:35:20.552Z,1008.25
2018-02-10T07:36:20.512Z,1008.32
2018-02-10T07:37:20.485Z,1008.27
2018-02-10T07:38:20.445Z,1008.31
2018-02-10T07:39:20.411Z,1008.33
2018-02-10T07:40:20.376Z,1008.32
2018-02-10T07:41:20.345Z,1008.31
2018-02-10T07:42:20.310Z,1008.31
2018-02-10T07:43:20.276Z,1008.33
2018-02-10T07:44:20.249Z,1008.35
2018-02-10T07:45:20.210Z,1008.32
2018-02-10T07:46:20.208Z,1008.35
2018-02-10T07:47:20.146Z,1008.39
2018-02-10T07:48:20.111Z,1008.36
2018-02-10T07:49:20.077Z,1008.34
2018-02-10T07:50:20.044Z,1008.38
2018-02-10T07:51:20.007Z,1008.41
2018-02-10T07:52:19.980Z,1008.38
2018-02-10T07:53:19.944Z,1008.43
2018-02-10T07:54:19.914Z,1008.42
2018-02-10T07:55:19.879Z,1008.42
2018-02-10T07:56:19.866Z,1008.42
2018-02-10T07:57:19.814Z,1008.43
2018-02-10T07:58:19.833Z,1008.42
2018-02-10T07:59:19.771Z,1008.43
2018-02-10T08:00:19.713Z,1008.44
2018-02-10T08:01:19.679Z,1008.44
2018-02-10T08:02:19.647Z,1008.41
2018-02-10T08:03:19.616Z,1008.42
2018-02-10T08:04:19.580Z,1008.38
2018-02-10T08:05:19.549Z,1008.39
2018-02-10T08:06:19.521Z,1008.37
2018-02-10T08:07:19.503Z,1008.41
2018-02-10T08:08:19.451Z,1008.40
2018-02-10T08:09:19.468Z,1008.45
2018-02-10T08:10:19.379Z,1008.43
2018-02-10T08:11:19.361Z,1008.42
2018-02-10T08:12:19.314Z,1008.47
2018-02-10T08:13:19.284Z,1008.44
2018-02-10T08:14:19.254Z,1008.49
2018-02-10T08:15:19.218Z,1008.51
2018-02-10T08:16:19.190Z,1008.54
2018-02-10T08:17:19.151Z,1008.53
2018-02-10T08:18:19.119Z,1008.47
2018-02-10T08:19:19.084Z,1008.54
2018-02-10T08:20:19.056Z,1008.52
2018-02-10T08:21:19.019Z,1008.54
2018-02-10T08:22:20.549Z,1008.55
2018-02-10T08:23:18.984Z,1008.51
2018-02-10T08:24:18.925Z,1008.51
2018-02-10T08:25:18.889Z,1008.54
2018-02-10T08:26:18.859Z,1008.48
2018-02-10T08:27:18.820Z,1008.49
2018-02-10T08:28:18.786Z,1008.49
2018-02-10T08:29:18.756Z,1008.51
2018-02-10T08:30:18.721Z,1008.48
2018-02-10T08:31:18.708Z,1008.51
2018-02-10T08:32:18.652Z,1008.44
2018-02-10T08:33:18.626Z,1008.47
2018-02-10T08:34:18.593Z,1008.47
2018-02-10T08:35:18.559Z,1008.50
2018-02-10T08:36:18.551Z,1008.51
2018-02-10T08:37:18.488Z,1008.56
2018-02-10T08:38:18.457Z,1008.51
2018-02-10T08:39:18.426Z,1008.50
2018-02-10T08:40:18.395Z,1008.55
2018-02-10T08:41:18.359Z,1008.48
2018-02-10T08:42:18.328Z,1008.55
2018-02-10T08:43:18.291Z,1008.56
2018-02-10T08:44:18.259Z,1008.55
2018-02-10T08:45:18.226Z,1008.59
2018-02-10T08:46:18.199Z,1008.62
2018-02-10T08:47:18.161Z,1008.64
2018-02-10T08:48:18.137Z,1008.64
2018-02-10T08:49:18.102Z,1008.61
2018-02-10T08:50:18.064Z,1008.62
2018-02-10T08:51:18.030Z,1008.65
2018-02-10T08:52:17.997Z,1008.68
2018-02-10T08:53:17.974Z,1008.65
2018-02-10T08:54:17.932Z,1008.63
2018-02-10T08:55:17.910Z,1008.65
2018-02-10T08:56:17.863Z,1008.66
2018-02-10T08:57:17.834Z,1008.66
2018-02-10T08:58:17.797Z,1008.67
2018-02-10T08:59:17.780Z,1008.62
2018-02-10T09:00:17.737Z,1008.68
2018-02-10T09:01:17.705Z,1008.67
2018-02-10T09:02:17.671Z,1008.70
2018-02-10T09:03:17.633Z,1008.72
2018-02-10T09:04:17.603Z,1008.66
2018-02-10T09:05:17.580Z,1008.68
2018-02-10T09:06:17.556Z,1008.69
2018-02-10T09:07:17.504Z,1008.67
2018-02-10T09:08:17.486Z,1008.66
2018-02-10T09:09:17.440Z,1008.65
2018-02-10T09:10:17.409Z,1008.69
2018-02-10T09:11:17.373Z,1008.69
2018-02-10T09:12:17.360Z,1008.67
2018-02-10T09:13:17.307Z,1008.65
2018-02-10T09:14:17.285Z,1008.69
2018-02-10T09:15:17.245Z,1008.62
2018-02-10T09:16:17.209Z,1008.65
2018-02-10T09:17:17.177Z,1008.61
2018-02-10T09:18:17.145Z,1008.64
2018-02-10T09:19:17.110Z,1008.64
2018-02-10T09:20:17.075Z,1008.59
2018-02-10T09:21:17.097Z,1008.60
2018-02-10T09:22:17.015Z,1008.64
2018-02-10T09:23:17.040Z,1008.62
2018-02-10T09:24:16.944Z,1008.64
2018-02-10T09:25:16.921Z,1008.68
2018-02-10T09:26:16.879Z,1008.68
2018-02-10T09:27:16.848Z,1008.69
2018-02-10T09:28:16.832Z,1008.68
2018-02-10T09:29:16.831Z,1008.67
2018-02-10T09:30:16.789Z,1008.65
2018-02-10T09:31:16.821Z,1008.71
2018-02-10T09:32:16.680Z,1008.65
2018-02-10T09:33:16.654Z,1008.66
2018-02-10T09:34:16.620Z,1008.62
2018-02-10T09:35:16.590Z,1008.63
2018-02-10T09:36:16.552Z,1008.62
2018-02-10T09:37:16.518Z,1008.65
2018-02-10T09:38:16.496Z,1008.60
2018-02-10T09:39:16.455Z,1008.58
2018-02-10T09:40:16.425Z,1008.59
2018-02-10T09:41:16.389Z,1008.61
2018-02-10T09:42:16.361Z,1008.64
2018-02-10T09:43:16.366Z,1008.63
2018-02-10T09:44:16.292Z,1008.68
2018-02-10T09:45:16.263Z,1008.66
2018-02-10T09:46:16.228Z,1008.66
2018-02-10T09:47:16.194Z,1008.72
2018-02-10T09:48:16.163Z,1008.69
2018-02-10T09:49:16.143Z,1008.67
2018-02-10T09:50:16.098Z,1008.68
2018-02-10T09:51:16.067Z,1008.66
2018-02-10T09:52:16.028Z,1008.72
2018-02-10T09:53:15.998Z,1008.68
2018-02-10T09:54:15.986Z,1008.75
2018-02-10T09:55:15.931Z,1008.71
2018-02-10T09:56:15.903Z,1008.68
2018-02-10T09:57:15.870Z,1008.71
2018-02-10T09:58:15.836Z,1008.68
2018-02-10T09:59:15.801Z,1008.70
2018-02-10T10:00:15.769Z,1008.70
2018-02-10T10:01:15.738Z,1008.67
2018-02-10T10:02:15.706Z,1008.68
2018-02-10T10:03:15.712Z,1008.69
2018-02-10T10:04:15.646Z,1008.61
2018-02-10T10:05:15.606Z,1008.66
2018-02-10T10:06:15.574Z,1008.68
2018-02-10T10:07:15.542Z,1008.64
2018-02-10T10:08:15.512Z,1008.66
2018-02-10T10:09:15.477Z,1008.73
2018-02-10T10:10:15.447Z,1008.70
2018-02-10T10:11:15.406Z,1008.67
2018-02-10T10:12:15.386Z,1008.70
2018-02-10T10:13:15.350Z,1008.72
2018-02-10T10:14:15.320Z,1008.68
2018-02-10T10:15:15.309Z,1008.70
2018-02-10T10:16:15.247Z,1008.67
2018-02-10T10:17:15.232Z,1008.70
2018-02-10T10:18:15.184Z,1008.67
2018-02-10T10:19:15.151Z,1008.68
2018-02-10T10:20:15.124Z,1008.71
2018-02-10T10:21:15.130Z,1008.70
2018-02-10T10:22:15.060Z,1008.69
2018-02-10T10:23:15.025Z,1008.73
2018-02-10T10:24:14.981Z,1008.72
2018-02-10T10:25:14.970Z,1008.69
2018-02-10T10:26:14.921Z,1008.70
2018-02-10T10:27:14.921Z,1008.72
2018-02-10T10:28:14.858Z,1008.74
2018-02-10T10:29:14.825Z,1008.74
2018-02-10T10:30:14.794Z,1008.71
2018-02-10T10:31:14.762Z,1008.68
2018-02-10T10:32:14.726Z,1008.69
2018-02-10T10:33:14.693Z,1008.74
2018-02-10T10:34:14.674Z,1008.72
2018-02-10T10:35:14.631Z,1008.73
2018-02-10T10:36:14.597Z,1008.75
2018-02-10T10:37:14.567Z,1008.68
2018-02-10T10:38:14.534Z,1008.67
2018-02-10T10:39:14.497Z,1008.68
2018-02-10T10:40:14.465Z,1008.70
2018-02-10T10:41:14.445Z,1008.66
2018-02-10T10:42:14.402Z,1008.64
2018-02-10T10:43:14.371Z,1008.66
2018-02-10T10:44:14.336Z,1008.64
2018-02-10T10:45:14.301Z,1008.61
2018-02-10T10:46:14.271Z,1008.61
2018-02-10T10:47:14.239Z,1008.63
2018-02-10T10:48:14.205Z,1008.61
2018-02-10T10:49:14.209Z,1008.63
2018-02-10T10:50:14.142Z,1008.61
2018-02-10T10:51:14.108Z,1008.68
2018-02-10T10:52:14.084Z,1008.66
2018-02-10T10:53:14.043Z,1008.66
2018-02-10T10:54:14.013Z,1008.73
2018-02-10T10:55:14.023Z,1008.74
2018-02-10T10:56:13.952Z,1008.73
2018-02-10T10:57:13.916Z,1008.76
2018-02-10T10:58:13.883Z,1008.70
2018-02-10T10:59:13.845Z,1008.71
2018-02-10T11:00:13.822Z,1008.73
2018-02-10T11:01:13.792Z,1008.74
2018-02-10T11:02:13.814Z,1008.75
2018-02-10T11:03:13.721Z,1008.76
2018-02-10T11:04:13.692Z,1008.73
2018-02-10T11:05:13.666Z,1008.72
2018-02-10T11:06:13.628Z,1008.71
2018-02-10T11:07:13.593Z,1008.68
2018-02-10T11:08:13.563Z,1008.71
2018-02-10T11:09:13.527Z,1008.69
2018-02-10T11:10:13.502Z,1008.72
2018-02-10T11:11:13.474Z,1008.77
2018-02-10T11:12:14.297Z,1008.79
2018-02-10T11:13:13.399Z,1008.73
2018-02-10T11:14:13.369Z,1008.71
2018-02-10T11:15:13.336Z,1008.68
2018-02-10T11:16:13.302Z,1008.68
2018-02-10T11:17:13.274Z,1008.65
2018-02-10T11:18:13.241Z,1008.66
2018-02-10T11:19:13.206Z,1008.64
2018-02-10T11:20:13.172Z,1008.60
2018-02-10T11:21:13.149Z,1008.63
2018-02-10T11:22:13.115Z,1008.60
2018-02-10T11:23:13.078Z,1008.62
2018-02-10T11:24:13.046Z,1008.63
2018-02-10T11:25:13.017Z,1008.61
2018-02-10T11:26:12.983Z,1008.63
2018-02-10T11:27:12.948Z,1008.65
2018-02-10T11:28:12.944Z,1008.64
2018-02-10T11:29:12.895Z,1008.67
2018-02-10T11:30:12.854Z,1008.63
2018-02-10T11:31:12.876Z,1008.62
2018-02-10T11:32:12.791Z,1008.65
2018-02-10T11:33:12.753Z,1008.63
2018-02-10T11:34:12.722Z,1008.64
2018-02-10T11:35:12.704Z,1008.69
2018-02-10T11:36:12.656Z,1008.67
2018-02-10T11:37:12.623Z,1008.65
2018-02-10T11:38:12.707Z,1008.63
2018-02-10T11:39:12.565Z,1008.70
2018-02-10T11:40:12.533Z,1008.69
2018-02-10T11:41:12.504Z,1008.67
2018-02-10T11:42:12.462Z,1008.69
2018-02-10T11:43:12.431Z,1008.70
2018-02-10T11:44:12.400Z,1008.63
2018-02-10T11:45:12.381Z,1008.67
2018-02-10T11:46:12.336Z,1008.66
2018-02-10T11:47:12.302Z,1008.62
2018-02-10T11:48:12.274Z,1008.57
2018-02-10T11:49:12.240Z,1008.60
2018-02-10T11:50:12.207Z,1008.56
2018-02-10T11:51:12.174Z,1008.53
2018-02-10T11:52:12.144Z,1008.49
2018-02-10T11:53:12.208Z,1008.50
2018-02-10T11:54:12.081Z,1008.51
2018-02-10T11:55:12.048Z,1008.50
2018-02-10T11:56:12.044Z,1008.53
2018-02-10T11:57:11.988Z,1008.55
2018-02-10T11:58:11.955Z,1008.55
2018-02-10T11:59:11.912Z,1008.49
2018-02-10T12:00:11.893Z,1008.51
2018-02-10T12:01:11.900Z,1008.47
2018-02-10T12:02:11.817Z,1008.47
2018-02-10T12:03:11.789Z,1008.47
2018-02-10T12:04:11.754Z,1008.46
2018-02-10T12:05:11.730Z,1008.44